KSUA/SUA METAR and TAF weather

Enter ICAO airport designator
Station Type Date Time Source
KSUA METAR 2020/10/20 16:47 UTC NOAA

KSUA 201647Z 11012G19KT 7SM SCT025 SCT030 SCT038 29/23 A3000


Station Type Date Time Source
KSUA Decoded METAR 2020/10/20 16:47 UTC NOAA

Stuart, Witham Field Airport, FL, United States (KSUA) 27-10-54N 080-13-16W
Oct 20, 2020 - 12:47 PM EDT / 2020.10.20 1647 UTC
Wind: from the ESE (110 degrees) at 14 MPH (12 KT) gusting to 22 MPH (19 KT):0
Visibility: 7 mile(s):0
Sky conditions: partly cloudy
Temperature: 84 F (29 C)
Dew Point: 73 F (23 C)
Relative Humidity: 70%
Pressure (altimeter): 30 in. Hg (1015 hPa)
ob: KSUA 201647Z 11012G19KT 7SM SCT025 SCT030 SCT038 29/23 A3000
cycle: 17

Station Type Date Time Source
KSUA TAF 2020/10/20 12:24 UTC NOAA

TAF KSUA 201120Z 2012/2112 09013G19KT P6SM VCSH SCT024 SCT035 OVC200
FM201500 10014G22KT P6SM VCSH SCT030 BKN060 BKN200
FM210100 09012G17KT P6SM VCSH SCT025 BKN250

Example: see airport list